createdAt,value
2023-01-11T00:00:11.038Z,958.34
2023-01-11T00:01:11.031Z,958.23
2023-01-11T00:02:11.046Z,958.24
2023-01-11T00:03:10.982Z,958.22
2023-01-11T00:04:11.010Z,958.18
2023-01-11T00:05:10.983Z,958.20
2023-01-11T00:06:10.977Z,958.23
2023-01-11T00:07:10.930Z,958.18
2023-01-11T00:08:10.989Z,958.15
2023-01-11T00:09:10.901Z,958.10
2023-01-11T00:10:10.907Z,958.05
2023-01-11T00:11:10.892Z,958.02
2023-01-11T00:12:10.888Z,958.07
2023-01-11T00:13:10.896Z,958.06
2023-01-11T00:14:10.880Z,958.05
2023-01-11T00:15:10.880Z,957.99
2023-01-11T00:16:10.969Z,957.95
2023-01-11T00:17:10.881Z,957.98
2023-01-11T00:18:10.808Z,957.92
2023-01-11T00:19:10.783Z,957.92
2023-01-11T00:20:10.797Z,957.84
2023-01-11T00:21:10.813Z,957.86
2023-01-11T00:22:10.762Z,957.82
2023-01-11T00:23:10.742Z,957.78
2023-01-11T00:24:10.729Z,957.82
2023-01-11T00:25:10.694Z,957.82
2023-01-11T00:26:10.744Z,957.82
2023-01-11T00:27:10.709Z,957.78
2023-01-11T00:28:10.675Z,957.78
2023-01-11T00:29:10.672Z,957.77
2023-01-11T00:30:10.658Z,957.80
2023-01-11T00:31:10.705Z,957.77
2023-01-11T00:32:10.615Z,957.75
2023-01-11T00:33:10.605Z,957.77
2023-01-11T00:34:10.593Z,957.81
2023-01-11T00:35:10.569Z,957.75
2023-01-11T00:36:10.586Z,957.83
2023-01-11T00:37:10.592Z,957.86
2023-01-11T00:38:10.552Z,957.90
2023-01-11T00:39:10.552Z,957.94
2023-01-11T00:40:10.514Z,957.92
2023-01-11T00:41:10.490Z,957.91
2023-01-11T00:42:10.483Z,957.93
2023-01-11T00:43:10.474Z,957.87
2023-01-11T00:44:10.479Z,957.82
2023-01-11T00:45:10.444Z,957.79
2023-01-11T00:46:10.460Z,957.80
2023-01-11T00:47:10.561Z,957.80
2023-01-11T00:48:10.405Z,957.82
2023-01-11T00:49:10.422Z,957.79
2023-01-11T00:50:10.424Z,957.79
2023-01-11T00:51:10.387Z,957.76
2023-01-11T00:52:10.371Z,957.77
2023-01-11T00:53:10.347Z,957.79
2023-01-11T00:54:10.329Z,957.78
2023-01-11T00:55:10.371Z,957.74
2023-01-11T00:56:10.303Z,957.75
2023-01-11T00:57:10.323Z,957.71
2023-01-11T00:58:10.291Z,957.69
2023-01-11T00:59:10.261Z,957.70
2023-01-11T01:00:10.251Z,957.68
2023-01-11T01:01:10.296Z,957.70
2023-01-11T01:02:10.288Z,957.72
2023-01-11T01:03:10.253Z,957.67
2023-01-11T01:04:10.181Z,957.67
2023-01-11T01:05:10.221Z,957.71
2023-01-11T01:06:10.171Z,957.74
2023-01-11T01:07:10.153Z,957.69
2023-01-11T01:08:10.150Z,957.69
2023-01-11T01:09:10.147Z,957.68
2023-01-11T01:10:10.152Z,957.67
2023-01-11T01:11:10.107Z,957.74
2023-01-11T01:12:10.080Z,957.68
2023-01-11T01:13:10.111Z,957.71
2023-01-11T01:14:10.083Z,957.76
2023-01-11T01:15:10.056Z,957.79
2023-01-11T01:16:10.130Z,957.77
2023-01-11T01:17:10.032Z,957.83
2023-01-11T01:18:10.035Z,957.77
2023-01-11T01:19:10.023Z,957.82
2023-01-11T01:20:09.982Z,957.87
2023-01-11T01:21:09.973Z,957.80
2023-01-11T01:22:09.956Z,957.81
2023-01-11T01:23:09.953Z,957.79
2023-01-11T01:24:09.967Z,957.77
2023-01-11T01:25:09.921Z,957.77
2023-01-11T01:26:09.902Z,957.75
2023-01-11T01:27:09.896Z,957.77
2023-01-11T01:28:09.902Z,957.79
2023-01-11T01:29:09.871Z,957.79
2023-01-11T01:30:09.871Z,957.80
2023-01-11T01:31:09.894Z,957.79
2023-01-11T01:32:09.825Z,957.81
2023-01-11T01:33:09.824Z,957.77
2023-01-11T01:34:09.803Z,957.72
2023-01-11T01:35:09.826Z,957.79
2023-01-11T01:36:09.807Z,957.79
2023-01-11T01:37:09.783Z,957.72
2023-01-11T01:38:09.750Z,957.77
2023-01-11T01:39:09.739Z,957.73
2023-01-11T01:40:09.749Z,957.73
2023-01-11T01:41:09.748Z,957.73
2023-01-11T01:42:09.716Z,957.73
2023-01-11T01:43:09.684Z,957.69
2023-01-11T01:44:09.660Z,957.70
2023-01-11T01:45:09.670Z,957.68
2023-01-11T01:46:09.688Z,957.64
2023-01-11T01:47:09.645Z,957.66
2023-01-11T01:48:09.616Z,957.57
2023-01-11T01:49:09.613Z,957.55
2023-01-11T01:50:09.592Z,957.56
2023-01-11T01:51:09.619Z,957.58
2023-01-11T01:52:09.594Z,957.57
2023-01-11T01:53:09.554Z,957.62
2023-01-11T01:54:09.548Z,957.56
2023-01-11T01:55:09.545Z,957.63
2023-01-11T01:56:09.545Z,957.67
2023-01-11T01:57:09.542Z,957.69
2023-01-11T01:58:09.513Z,957.66
2023-01-11T01:59:09.509Z,957.68
2023-01-11T02:00:09.487Z,957.65
2023-01-11T02:01:09.464Z,957.62
2023-01-11T02:02:09.472Z,957.66
2023-01-11T02:03:09.467Z,957.70
2023-01-11T02:04:09.407Z,957.66
2023-01-11T02:05:09.409Z,957.68
2023-01-11T02:06:09.378Z,957.67
2023-01-11T02:07:09.394Z,957.67
2023-01-11T02:08:09.399Z,957.64
2023-01-11T02:09:09.361Z,957.60
2023-01-11T02:10:09.349Z,957.60
2023-01-11T02:11:09.329Z,957.63
2023-01-11T02:12:09.337Z,957.59
2023-01-11T02:13:09.315Z,957.58
2023-01-11T02:14:09.274Z,957.54
2023-01-11T02:15:09.302Z,957.56
2023-01-11T02:16:09.363Z,957.53
2023-01-11T02:17:09.264Z,957.57
2023-01-11T02:18:09.232Z,957.59
2023-01-11T02:19:09.222Z,957.57
2023-01-11T02:20:09.229Z,957.49
2023-01-11T02:21:09.193Z,957.42
2023-01-11T02:22:09.218Z,957.50
2023-01-11T02:23:09.170Z,957.40
2023-01-11T02:24:09.182Z,957.41
2023-01-11T02:25:09.143Z,957.40
2023-01-11T02:26:09.120Z,957.41
2023-01-11T02:27:09.116Z,957.36
2023-01-11T02:28:09.125Z,957.31
2023-01-11T02:29:09.100Z,957.29
2023-01-11T02:30:09.118Z,957.28
2023-01-11T02:31:09.100Z,957.26
2023-01-11T02:32:09.061Z,957.29
2023-01-11T02:33:09.037Z,957.34
2023-01-11T02:34:09.045Z,957.26
2023-01-11T02:35:09.013Z,957.25
2023-01-11T02:36:08.990Z,957.26
2023-01-11T02:37:08.983Z,957.27
2023-01-11T02:38:08.965Z,957.27
2023-01-11T02:39:08.987Z,957.21
2023-01-11T02:40:08.962Z,957.20
2023-01-11T02:41:08.931Z,957.11
2023-01-11T02:42:08.914Z,957.11
2023-01-11T02:43:08.933Z,957.12
2023-01-11T02:44:08.912Z,957.21
2023-01-11T02:45:08.883Z,957.18
2023-01-11T02:46:08.971Z,957.13
2023-01-11T02:47:08.859Z,957.12
2023-01-11T02:48:08.851Z,957.04
2023-01-11T02:49:08.863Z,957.10
2023-01-11T02:50:08.809Z,956.97
2023-01-11T02:51:08.858Z,956.96
2023-01-11T02:52:08.811Z,956.89
2023-01-11T02:53:08.779Z,956.91
2023-01-11T02:54:08.749Z,956.94
2023-01-11T02:55:08.813Z,956.98
2023-01-11T02:56:08.810Z,957.00
2023-01-11T02:57:08.740Z,956.99
2023-01-11T02:58:08.708Z,957.01
2023-01-11T02:59:08.728Z,957.04
2023-01-11T03:00:08.682Z,957.04
2023-01-11T03:01:08.685Z,957.01
2023-01-11T03:02:08.685Z,957.03
2023-01-11T03:03:08.679Z,957.03
2023-01-11T03:04:08.626Z,957.00
2023-01-11T03:05:08.621Z,956.96
2023-01-11T03:06:08.622Z,956.98
2023-01-11T03:07:08.596Z,957.00
2023-01-11T03:08:08.574Z,957.01
2023-01-11T03:09:08.582Z,957.01
2023-01-11T03:10:08.540Z,956.97
2023-01-11T03:11:08.581Z,957.00
2023-01-11T03:12:08.537Z,956.95
2023-01-11T03:13:08.533Z,956.99
2023-01-11T03:14:08.503Z,956.95
2023-01-11T03:15:08.518Z,956.91
2023-01-11T03:16:08.713Z,956.88
2023-01-11T03:17:08.474Z,956.88
2023-01-11T03:18:08.437Z,956.87
2023-01-11T03:19:08.455Z,956.92
2023-01-11T03:20:08.432Z,956.99
2023-01-11T03:21:08.403Z,956.97
2023-01-11T03:22:08.397Z,956.92
2023-01-11T03:23:08.390Z,956.90
2023-01-11T03:24:08.379Z,956.95
2023-01-11T03:25:08.360Z,956.87
2023-01-11T03:26:08.363Z,956.88
2023-01-11T03:27:08.329Z,956.91
2023-01-11T03:28:08.310Z,957.02
2023-01-11T03:29:08.303Z,957.04
2023-01-11T03:30:08.314Z,957.01
2023-01-11T03:31:08.328Z,957.02
2023-01-11T03:32:08.281Z,956.95
2023-01-11T03:33:08.266Z,957.01
2023-01-11T03:34:08.236Z,956.96
2023-01-11T03:35:08.296Z,956.97
2023-01-11T03:36:08.207Z,956.99
2023-01-11T03:37:08.262Z,957.00
2023-01-11T03:38:08.183Z,957.05
2023-01-11T03:39:08.173Z,956.97
2023-01-11T03:40:08.235Z,956.96
2023-01-11T03:41:08.154Z,956.97
2023-01-11T03:42:08.156Z,956.99
2023-01-11T03:43:08.127Z,957.09
2023-01-11T03:44:08.104Z,957.00
2023-01-11T03:45:08.095Z,957.06
2023-01-11T03:46:08.078Z,957.07
2023-01-11T03:47:08.187Z,956.99
2023-01-11T03:48:08.071Z,956.98
2023-01-11T03:49:08.072Z,957.00
2023-01-11T03:50:08.028Z,957.01
2023-01-11T03:51:08.020Z,956.97
2023-01-11T03:52:08.031Z,956.95
2023-01-11T03:53:08.010Z,957.01
2023-01-11T03:54:07.975Z,957.01
2023-01-11T03:55:07.963Z,957.03
2023-01-11T03:56:07.955Z,957.05
2023-01-11T03:57:07.960Z,957.00
2023-01-11T03:58:07.956Z,957.00
2023-01-11T03:59:07.909Z,956.96
2023-01-11T04:00:07.897Z,956.98
2023-01-11T04:01:07.958Z,956.95
2023-01-11T04:02:07.862Z,957.00
2023-01-11T04:03:07.893Z,956.98
2023-01-11T04:04:07.902Z,956.99
2023-01-11T04:05:07.837Z,957.00
2023-01-11T04:06:07.820Z,956.92
2023-01-11T04:07:07.810Z,956.99
2023-01-11T04:08:07.817Z,956.94
2023-01-11T04:09:07.785Z,956.97
2023-01-11T04:10:07.777Z,957.04
2023-01-11T04:11:07.757Z,957.00
2023-01-11T04:12:07.733Z,956.99
2023-01-11T04:13:07.739Z,957.02
2023-01-11T04:14:07.740Z,957.02
2023-01-11T04:15:07.717Z,957.01
2023-01-11T04:16:07.802Z,956.96
2023-01-11T04:17:07.696Z,956.93
2023-01-11T04:18:07.660Z,956.91
2023-01-11T04:19:07.663Z,956.92
2023-01-11T04:20:07.661Z,956.89
2023-01-11T04:21:07.632Z,956.89
2023-01-11T04:22:07.611Z,956.96
2023-01-11T04:23:07.617Z,956.87
2023-01-11T04:24:07.642Z,956.96
2023-01-11T04:25:07.594Z,956.96
2023-01-11T04:26:07.584Z,956.95
2023-01-11T04:27:07.580Z,956.89
2023-01-11T04:28:07.528Z,956.86
2023-01-11T04:29:07.551Z,956.95
2023-01-11T04:30:07.515Z,956.94
2023-01-11T04:31:07.592Z,956.93
2023-01-11T04:32:07.479Z,956.92
2023-01-11T04:33:07.475Z,956.89
2023-01-11T04:34:07.451Z,956.92
2023-01-11T04:35:07.497Z,956.96
2023-01-11T04:36:07.422Z,956.93
2023-01-11T04:37:07.422Z,956.97
2023-01-11T04:38:07.400Z,956.98
2023-01-11T04:39:07.455Z,956.96
2023-01-11T04:40:07.416Z,956.93
2023-01-11T04:41:07.391Z,956.95
2023-01-11T04:42:07.345Z,956.93
2023-01-11T04:43:07.360Z,956.88
2023-01-11T04:44:07.320Z,956.90
2023-01-11T04:45:07.321Z,956.86
2023-01-11T04:46:07.333Z,956.83
2023-01-11T04:47:07.305Z,956.86
2023-01-11T04:48:07.332Z,956.87
2023-01-11T04:49:07.258Z,956.86
2023-01-11T04:50:07.351Z,956.83
2023-01-11T04:51:07.268Z,956.83
2023-01-11T04:52:07.233Z,956.80
2023-01-11T04:53:07.224Z,956.82
2023-01-11T04:54:07.186Z,956.80
2023-01-11T04:55:07.169Z,956.80
2023-01-11T04:56:07.204Z,956.79
2023-01-11T04:57:07.148Z,956.72
2023-01-11T04:58:07.147Z,956.75
2023-01-11T04:59:07.124Z,956.76
2023-01-11T05:00:07.116Z,956.76
2023-01-11T05:01:07.243Z,956.78
2023-01-11T05:02:07.096Z,956.79
2023-01-11T05:03:07.097Z,956.79
2023-01-11T05:04:07.163Z,956.76
2023-01-11T05:05:07.048Z,956.70
2023-01-11T05:06:07.050Z,956.74
2023-01-11T05:07:07.044Z,956.72
2023-01-11T05:08:07.011Z,956.72
2023-01-11T05:09:07.006Z,956.76
2023-01-11T05:10:06.995Z,956.74
2023-01-11T05:11:06.991Z,956.62
2023-01-11T05:12:06.964Z,956.63
2023-01-11T05:13:06.967Z,956.68
2023-01-11T05:14:06.934Z,956.68
2023-01-11T05:15:06.922Z,956.67
2023-01-11T05:16:06.939Z,956.63
2023-01-11T05:17:06.891Z,956.60
2023-01-11T05:18:06.886Z,956.60
2023-01-11T05:19:06.897Z,956.59
2023-01-11T05:20:06.877Z,956.55
2023-01-11T05:21:06.838Z,956.56
2023-01-11T05:22:06.835Z,956.56
2023-01-11T05:23:06.833Z,956.52
2023-01-11T05:24:06.805Z,956.49
2023-01-11T05:25:06.791Z,956.45
2023-01-11T05:26:06.776Z,956.44
2023-01-11T05:27:06.772Z,956.45
2023-01-11T05:28:06.754Z,956.48
2023-01-11T05:29:06.818Z,956.46
2023-01-11T05:30:06.772Z,956.44
2023-01-11T05:31:06.715Z,956.42
2023-01-11T05:32:06.716Z,956.35
2023-01-11T05:33:06.683Z,956.26
2023-01-11T05:34:06.716Z,956.33
2023-01-11T05:35:06.658Z,956.31
2023-01-11T05:36:06.657Z,956.27
2023-01-11T05:37:06.657Z,956.27
2023-01-11T05:38:06.629Z,956.34
2023-01-11T05:39:06.606Z,956.38
2023-01-11T05:40:06.605Z,956.34
2023-01-11T05:41:06.579Z,956.27
2023-01-11T05:42:06.609Z,956.23
2023-01-11T05:43:06.567Z,956.27
2023-01-11T05:44:06.635Z,956.32
2023-01-11T05:45:06.559Z,956.26
2023-01-11T05:46:06.610Z,956.24
2023-01-11T05:47:06.525Z,956.27
2023-01-11T05:48:06.501Z,956.26
2023-01-11T05:49:06.493Z,956.21
2023-01-11T05:50:06.504Z,956.19
2023-01-11T05:51:06.454Z,956.21
2023-01-11T05:52:06.433Z,956.22
2023-01-11T05:53:06.433Z,956.20
2023-01-11T05:54:06.453Z,956.20
2023-01-11T05:55:06.404Z,956.25
2023-01-11T05:56:06.399Z,956.23
2023-01-11T05:57:06.366Z,956.21
2023-01-11T05:58:06.401Z,956.23
2023-01-11T05:59:06.385Z,956.21
2023-01-11T06:00:06.351Z,956.24
2023-01-11T06:01:06.307Z,956.25
2023-01-11T06:02:06.436Z,956.27
2023-01-11T06:03:06.368Z,956.20
2023-01-11T06:04:06.288Z,956.22
2023-01-11T06:05:06.267Z,956.20
2023-01-11T06:06:06.254Z,956.19
2023-01-11T06:07:06.269Z,956.23
2023-01-11T06:08:06.248Z,956.21
2023-01-11T06:09:06.267Z,956.15
2023-01-11T06:10:06.213Z,956.20
2023-01-11T06:11:06.531Z,956.16
2023-01-11T06:12:06.182Z,956.21
2023-01-11T06:13:06.163Z,956.17
2023-01-11T06:14:06.172Z,956.16
2023-01-11T06:15:06.159Z,956.16
2023-01-11T06:16:06.164Z,956.16
2023-01-11T06:17:06.116Z,956.17
2023-01-11T06:18:06.110Z,956.21
2023-01-11T06:19:06.098Z,956.19
2023-01-11T06:20:06.085Z,956.19
2023-01-11T06:21:06.089Z,956.17
2023-01-11T06:22:06.082Z,956.18
2023-01-11T06:23:06.064Z,956.14
2023-01-11T06:24:06.017Z,956.17
2023-01-11T06:25:06.143Z,956.15
2023-01-11T06:26:06.006Z,956.13
2023-01-11T06:27:06.007Z,956.13
2023-01-11T06:28:05.993Z,956.16
2023-01-11T06:29:05.992Z,956.17
2023-01-11T06:30:05.950Z,956.16
2023-01-11T06:31:05.989Z,956.07
2023-01-11T06:32:05.927Z,956.11
2023-01-11T06:33:05.935Z,956.10
2023-01-11T06:34:05.921Z,956.03
2023-01-11T06:35:05.888Z,956.03
2023-01-11T06:36:05.935Z,956.07
2023-01-11T06:37:05.839Z,956.05
2023-01-11T06:38:05.861Z,956.09
2023-01-11T06:39:05.915Z,956.05
2023-01-11T06:40:05.818Z,956.05
2023-01-11T06:41:05.808Z,956.05
2023-01-11T06:42:05.785Z,955.96
2023-01-11T06:43:05.795Z,955.84
2023-01-11T06:44:05.771Z,955.84
2023-01-11T06:45:05.740Z,955.85
2023-01-11T06:46:05.851Z,955.90
2023-01-11T06:47:05.769Z,955.95
2023-01-11T06:48:05.725Z,955.94
2023-01-11T06:49:05.684Z,955.91
2023-01-11T06:50:05.684Z,955.94
2023-01-11T06:51:05.704Z,955.92
2023-01-11T06:52:05.666Z,955.84
2023-01-11T06:53:05.673Z,955.85
2023-01-11T06:54:05.632Z,955.88
2023-01-11T06:55:05.647Z,955.86
2023-01-11T06:56:05.611Z,955.85
2023-01-11T06:57:05.609Z,955.83
2023-01-11T06:58:05.586Z,955.86
2023-01-11T06:59:05.557Z,955.88
2023-01-11T07:00:05.555Z,955.86
2023-01-11T07:01:05.613Z,955.88
2023-01-11T07:02:05.555Z,955.94
2023-01-11T07:03:05.556Z,955.95
2023-01-11T07:04:05.514Z,955.93
2023-01-11T07:05:05.515Z,955.93
2023-01-11T07:06:05.529Z,955.95
2023-01-11T07:07:05.485Z,955.93
2023-01-11T07:08:05.496Z,955.94
2023-01-11T07:09:05.448Z,955.91
2023-01-11T07:10:05.424Z,955.88
2023-01-11T07:11:05.516Z,955.86
2023-01-11T07:12:05.396Z,955.88
2023-01-11T07:13:05.431Z,955.85
2023-01-11T07:14:05.453Z,955.88
2023-01-11T07:15:05.432Z,955.96
2023-01-11T07:16:05.420Z,955.96
2023-01-11T07:17:05.352Z,955.97
2023-01-11T07:18:05.328Z,955.97
2023-01-11T07:19:05.332Z,955.85
2023-01-11T07:20:05.315Z,955.90
2023-01-11T07:21:05.333Z,955.94
2023-01-11T07:22:05.302Z,955.97
2023-01-11T07:23:05.313Z,955.96
2023-01-11T07:24:05.310Z,955.96
2023-01-11T07:25:05.255Z,956.01
2023-01-11T07:26:05.248Z,955.99
2023-01-11T07:27:05.263Z,955.96
2023-01-11T07:28:05.209Z,955.91
2023-01-11T07:29:05.190Z,955.93
2023-01-11T07:30:05.171Z,955.90
2023-01-11T07:31:05.217Z,955.84
2023-01-11T07:32:05.180Z,955.87
2023-01-11T07:33:05.172Z,955.88
2023-01-11T07:34:05.115Z,955.93
2023-01-11T07:35:05.150Z,955.86
2023-01-11T07:36:05.139Z,955.86
2023-01-11T07:37:05.168Z,955.83
2023-01-11T07:38:05.128Z,955.83
2023-01-11T07:39:05.145Z,955.77
2023-01-11T07:40:05.038Z,955.80
2023-01-11T07:41:05.034Z,955.80
2023-01-11T07:42:05.047Z,955.83
2023-01-11T07:43:05.146Z,955.76
2023-01-11T07:44:05.031Z,955.68
2023-01-11T07:45:04.979Z,955.68
2023-01-11T07:46:05.055Z,955.61
2023-01-11T07:47:05.032Z,955.66
2023-01-11T07:48:04.918Z,955.66
2023-01-11T07:49:04.963Z,955.64
2023-01-11T07:50:04.982Z,955.68
2023-01-11T07:51:04.880Z,955.64
2023-01-11T07:52:05.049Z,955.72
2023-01-11T07:53:04.895Z,955.69
2023-01-11T07:54:04.872Z,955.63
2023-01-11T07:55:04.879Z,955.64
2023-01-11T07:56:04.911Z,955.60
2023-01-11T07:57:04.795Z,955.58
2023-01-11T07:58:04.884Z,955.61
2023-01-11T07:59:04.835Z,955.65
2023-01-11T08:00:04.809Z,955.66
2023-01-11T08:01:04.834Z,955.64
2023-01-11T08:02:04.774Z,955.64
2023-01-11T08:03:04.905Z,955.67
2023-01-11T08:04:04.748Z,955.63
2023-01-11T08:05:04.782Z,955.61
2023-01-11T08:06:04.733Z,955.59
2023-01-11T08:07:04.769Z,955.61
2023-01-11T08:08:04.702Z,955.70
2023-01-11T08:09:04.649Z,955.65
2023-01-11T08:10:04.761Z,955.69
2023-01-11T08:11:05.621Z,955.69
2023-01-11T08:12:04.620Z,955.66
2023-01-11T08:13:04.661Z,955.60
2023-01-11T08:14:04.640Z,955.57
2023-01-11T08:15:04.606Z,955.61
2023-01-11T08:16:04.670Z,955.64
2023-01-11T08:17:04.533Z,955.59
2023-01-11T08:18:04.531Z,955.58
2023-01-11T08:19:04.627Z,955.59
2023-01-11T08:20:04.570Z,955.53
2023-01-11T08:21:04.492Z,955.47
2023-01-11T08:22:04.587Z,955.44
2023-01-11T08:23:04.556Z,955.41
2023-01-11T08:24:04.501Z,955.32
2023-01-11T08:25:04.423Z,955.36
2023-01-11T08:26:04.433Z,955.39
2023-01-11T08:27:04.613Z,955.37
2023-01-11T08:28:04.545Z,955.38
2023-01-11T08:29:04.383Z,955.37
2023-01-11T08:30:04.393Z,955.37
2023-01-11T08:31:04.491Z,955.35
2023-01-11T08:32:04.402Z,955.42
2023-01-11T08:33:04.419Z,955.43
2023-01-11T08:34:04.399Z,955.47
2023-01-11T08:35:04.329Z,955.47
2023-01-11T08:36:04.414Z,955.52
2023-01-11T08:37:04.311Z,955.53
2023-01-11T08:38:04.302Z,955.53
2023-01-11T08:39:04.319Z,955.50
2023-01-11T08:40:04.273Z,955.54
2023-01-11T08:41:04.360Z,955.58
2023-01-11T08:42:04.216Z,955.58
2023-01-11T08:43:04.218Z,955.52
2023-01-11T08:44:04.329Z,955.50
2023-01-11T08:45:04.177Z,955.48
2023-01-11T08:46:04.269Z,955.48
2023-01-11T08:47:04.157Z,955.51
2023-01-11T08:48:04.191Z,955.53
2023-01-11T08:49:04.156Z,955.52
2023-01-11T08:50:04.126Z,955.58
2023-01-11T08:51:04.185Z,955.65
2023-01-11T08:52:04.118Z,955.64
2023-01-11T08:53:04.145Z,955.61
2023-01-11T08:54:04.224Z,955.60
2023-01-11T08:55:04.076Z,955.61
2023-01-11T08:56:04.037Z,955.56
2023-01-11T08:57:04.017Z,955.59
2023-01-11T08:58:04.045Z,955.60
2023-01-11T08:59:04.027Z,955.69
2023-01-11T09:00:03.994Z,955.59
2023-01-11T09:01:04.000Z,955.57
2023-01-11T09:02:03.953Z,955.59
2023-01-11T09:03:04.070Z,955.50
2023-01-11T09:04:15.579Z,955.56
2023-01-11T09:05:03.914Z,955.54
2023-01-11T09:06:03.890Z,955.51
2023-01-11T09:07:03.923Z,955.54
2023-01-11T09:08:03.875Z,955.52
2023-01-11T09:09:03.875Z,955.58
2023-01-11T09:10:03.870Z,955.56
2023-01-11T09:11:03.885Z,955.55
2023-01-11T09:12:05.733Z,955.60
2023-01-11T09:13:03.830Z,955.55
2023-01-11T09:14:03.784Z,955.62
2023-01-11T09:15:03.798Z,955.55
2023-01-11T09:16:03.840Z,955.54
2023-01-11T09:17:03.779Z,955.61
2023-01-11T09:18:03.735Z,955.57
2023-01-11T09:19:03.724Z,955.54
2023-01-11T09:20:03.741Z,955.58
2023-01-11T09:21:03.742Z,955.52
2023-01-11T09:22:03.686Z,955.54
2023-01-11T09:23:03.681Z,955.50
2023-01-11T09:24:03.682Z,955.52
2023-01-11T09:25:03.640Z,955.54
2023-01-11T09:26:03.666Z,955.48
2023-01-11T09:27:03.651Z,955.48
2023-01-11T09:28:03.611Z,955.46
2023-01-11T09:29:03.646Z,955.54
2023-01-11T09:30:03.592Z,955.52
2023-01-11T09:31:03.613Z,955.43
2023-01-11T09:32:03.577Z,955.47
2023-01-11T09:33:03.543Z,955.41
2023-01-11T09:34:03.519Z,955.44
2023-01-11T09:35:03.520Z,955.39
2023-01-11T09:36:03.522Z,955.43
2023-01-11T09:37:03.523Z,955.37
2023-01-11T09:38:03.464Z,955.36
2023-01-11T09:39:03.469Z,955.37
2023-01-11T09:40:03.447Z,955.33
2023-01-11T09:41:03.454Z,955.30
2023-01-11T09:42:03.443Z,955.23
2023-01-11T09:43:03.562Z,955.26
2023-01-11T09:44:03.387Z,955.26
2023-01-11T09:45:03.393Z,955.26
2023-01-11T09:46:03.464Z,955.28
2023-01-11T09:47:03.363Z,955.27
2023-01-11T09:48:03.336Z,955.24
2023-01-11T09:49:03.396Z,955.22
2023-01-11T09:50:03.337Z,955.18
2023-01-11T09:51:03.389Z,955.14
2023-01-11T09:52:03.298Z,955.11
2023-01-11T09:53:03.322Z,955.10
2023-01-11T09:54:03.258Z,955.06
2023-01-11T09:55:03.284Z,955.08
2023-01-11T09:56:03.251Z,955.08
2023-01-11T09:57:03.231Z,955.10
2023-01-11T09:58:03.213Z,955.12
2023-01-11T09:59:03.228Z,955.01
2023-01-11T10:00:03.181Z,955.08
2023-01-11T10:01:03.334Z,955.07
2023-01-11T10:02:03.147Z,955.05
2023-01-11T10:03:03.179Z,955.04
2023-01-11T10:04:03.140Z,954.96
2023-01-11T10:05:03.191Z,954.93
2023-01-11T10:06:03.103Z,954.87
2023-01-11T10:07:03.100Z,954.87
2023-01-11T10:18:23.583Z,954.87
2023-01-11T10:19:04.304Z,954.82
2023-01-11T10:19:37.335Z,954.71
2023-01-11T10:19:49.492Z,954.72
2023-01-11T10:20:49.407Z,954.73
2023-01-11T10:21:49.357Z,954.73
2023-01-11T10:22:49.342Z,954.72
2023-01-11T10:23:49.401Z,954.67
2023-01-11T10:24:49.428Z,954.68
2023-01-11T10:25:49.421Z,954.72
2023-01-11T10:26:49.422Z,954.73
2023-01-11T10:27:49.282Z,954.66
2023-01-11T10:28:49.282Z,954.69
2023-01-11T10:29:49.272Z,954.57
2023-01-11T10:30:49.308Z,954.60
2023-01-11T10:31:49.421Z,954.57
2023-01-11T10:32:49.315Z,954.58
2023-01-11T10:33:49.247Z,954.53
2023-01-11T10:34:49.192Z,954.54
2023-01-11T10:35:49.219Z,954.60
2023-01-11T10:36:49.219Z,954.54
2023-01-11T10:37:49.159Z,954.54
2023-01-11T10:38:49.152Z,954.56
2023-01-11T10:39:49.156Z,954.52
2023-01-11T10:40:49.161Z,954.52
2023-01-11T10:41:49.107Z,954.53
2023-01-11T10:42:49.082Z,954.55
2023-01-11T10:43:49.211Z,954.52
2023-01-11T10:44:49.069Z,954.47
2023-01-11T10:45:49.256Z,954.49
2023-01-11T10:46:49.031Z,954.49
2023-01-11T10:47:49.099Z,954.48
2023-01-11T10:48:49.043Z,954.47
2023-01-11T10:49:49.020Z,954.43
2023-01-11T10:50:49.031Z,954.44
2023-01-11T10:51:48.996Z,954.39
2023-01-11T10:52:48.967Z,954.36
2023-01-11T10:53:48.932Z,954.36
2023-01-11T10:54:50.138Z,954.35
2023-01-11T10:55:48.895Z,954.27
2023-01-11T10:57:01.850Z,954.29
2023-01-11T10:58:00.422Z,954.28
2023-01-11T10:58:48.902Z,954.28
2023-01-11T10:59:48.902Z,954.35
2023-01-11T11:00:48.987Z,954.25
2023-01-11T11:01:48.866Z,954.26
2023-01-11T11:02:48.827Z,954.20
2023-01-11T11:03:48.897Z,954.21
2023-01-11T11:04:48.799Z,954.23
2023-01-11T11:05:48.790Z,954.20
2023-01-11T11:06:48.782Z,954.20
2023-01-11T11:07:48.749Z,954.20
2023-01-11T11:08:48.759Z,954.20
2023-01-11T11:09:48.720Z,954.24
2023-01-11T11:10:48.709Z,954.19
2023-01-11T11:11:48.680Z,954.20
2023-01-11T11:12:48.714Z,954.22
2023-01-11T11:13:48.660Z,954.23
2023-01-11T11:14:48.662Z,954.20
2023-01-11T11:15:48.723Z,954.20
2023-01-11T11:16:48.669Z,954.16
2023-01-11T11:17:48.649Z,954.15
2023-01-11T11:18:48.622Z,954.10
2023-01-11T11:19:48.575Z,954.11
2023-01-11T11:20:48.569Z,954.15
2023-01-11T11:21:48.564Z,954.12
2023-01-11T11:22:48.555Z,954.10
2023-01-11T11:23:48.549Z,954.09
2023-01-11T11:24:48.622Z,954.05
2023-01-11T11:25:48.523Z,954.05
2023-01-11T11:26:48.519Z,954.04
2023-01-11T11:27:48.469Z,954.04
2023-01-11T11:28:48.532Z,953.99
2023-01-11T11:29:48.479Z,953.97
2023-01-11T11:30:48.448Z,953.97
2023-01-11T11:31:48.527Z,954.00
2023-01-11T11:32:48.420Z,954.01
2023-01-11T11:33:48.410Z,953.95
2023-01-11T11:34:48.385Z,953.92
2023-01-11T11:35:48.364Z,953.93
2023-01-11T11:36:48.388Z,953.96
2023-01-11T11:37:48.368Z,953.93
2023-01-11T11:38:48.365Z,953.94
2023-01-11T11:39:48.327Z,953.93
2023-01-11T11:40:48.311Z,953.89
2023-01-11T11:41:48.290Z,953.85
2023-01-11T11:42:48.340Z,953.87
2023-01-11T11:43:48.291Z,953.86
2023-01-11T11:44:48.251Z,953.87
2023-01-11T11:45:48.283Z,953.88
2023-01-11T11:46:48.229Z,953.80
2023-01-11T11:47:48.211Z,953.79
2023-01-11T11:48:48.238Z,953.78
2023-01-11T11:49:48.175Z,953.79
2023-01-11T11:50:48.198Z,953.79
2023-01-11T11:51:48.168Z,953.75
2023-01-11T11:52:48.149Z,953.70
2023-01-11T11:53:48.152Z,953.63
2023-01-11T11:54:48.122Z,953.62
2023-01-11T11:55:48.160Z,953.58
2023-01-11T11:56:48.099Z,953.62
2023-01-11T11:57:48.092Z,953.66
2023-01-11T11:58:48.085Z,953.63
2023-01-11T11:59:48.055Z,953.63
2023-01-11T12:00:48.058Z,953.63
2023-01-11T12:01:48.140Z,953.59
2023-01-11T12:02:48.017Z,953.59
2023-01-11T12:03:47.992Z,953.60
2023-01-11T12:04:48.069Z,953.57
2023-01-11T12:05:47.999Z,953.59
2023-01-11T12:06:49.301Z,953.60
2023-01-11T12:07:54.901Z,953.58
2023-01-11T12:08:47.938Z,953.64
2023-01-11T12:09:47.911Z,953.63
2023-01-11T12:10:47.911Z,953.60
2023-01-11T12:11:47.916Z,953.58
2023-01-11T12:12:47.908Z,953.54
2023-01-11T12:13:47.872Z,953.54
2023-01-11T12:14:47.859Z,953.58
2023-01-11T12:15:47.856Z,953.62
2023-01-11T12:16:47.940Z,953.64
2023-01-11T12:17:47.822Z,953.59
2023-01-11T12:18:47.847Z,953.54
2023-01-11T12:19:47.785Z,953.56
2023-01-11T12:20:47.770Z,953.59
2023-01-11T12:21:47.752Z,953.62
2023-01-11T12:22:47.780Z,953.57
2023-01-11T12:23:47.800Z,953.54
2023-01-11T12:24:47.723Z,953.55
2023-01-11T12:25:47.708Z,953.57
2023-01-11T12:26:47.813Z,953.59
2023-01-11T12:27:47.713Z,953.53
2023-01-11T12:28:47.681Z,953.54
2023-01-11T12:29:47.681Z,953.58
2023-01-11T12:30:47.759Z,953.54
2023-01-11T12:31:47.630Z,953.51
2023-01-11T12:32:47.619Z,953.48
2023-01-11T12:33:47.596Z,953.46
2023-01-11T12:34:47.603Z,953.45
2023-01-11T12:35:47.567Z,953.41
2023-01-11T12:36:47.601Z,953.42